sensor_id;sensor_type;location;lat;lon;timestamp;pressure;altitude;pressure_sealevel;temperature;humidity
9784;BME280;4931;44.874;-1.092;2022-08-23T00:02:58;101537.66;;;20.35;100.00
9784;BME280;4931;44.874;-1.092;2022-08-23T00:07:45;101530.78;;;20.42;100.00
9784;BME280;4931;44.874;-1.092;2022-08-23T00:12:34;101527.34;;;20.27;100.00
9784;BME280;4931;44.874;-1.092;2022-08-23T00:17:19;101530.13;;;20.36;100.00
9784;BME280;4931;44.874;-1.092;2022-08-23T00:22:15;101522.44;;;20.24;100.00
9784;BME280;4931;44.874;-1.092;2022-08-23T00:27:03;101530.59;;;20.12;100.00
9784;BME280;4931;44.874;-1.092;2022-08-23T00:31:52;101515.06;;;20.11;100.00
9784;BME280;4931;44.874;-1.092;2022-08-23T00:36:38;101526.31;;;19.88;100.00
9784;BME280;4931;44.874;-1.092;2022-08-23T00:41:31;101520.28;;;20.03;100.00
9784;BME280;4931;44.874;-1.092;2022-08-23T00:46:33;101524.22;;;20.11;100.00
9784;BME280;4931;44.874;-1.092;2022-08-23T00:51:45;101510.97;;;20.08;100.00
9784;BME280;4931;44.874;-1.092;2022-08-23T00:56:35;101512.94;;;20.16;100.00
9784;BME280;4931;44.874;-1.092;2022-08-23T01:01:21;101509.50;;;20.11;100.00
9784;BME280;4931;44.874;-1.092;2022-08-23T01:06:09;101514.38;;;20.05;100.00
9784;BME280;4931;44.874;-1.092;2022-08-23T01:11:03;101506.19;;;20.09;100.00
9784;BME280;4931;44.874;-1.092;2022-08-23T01:15:57;101511.59;;;20.05;100.00
9784;BME280;4931;44.874;-1.092;2022-08-23T01:20:47;101516.69;;;20.03;100.00
9784;BME280;4931;44.874;-1.092;2022-08-23T01:25:37;101507.03;;;20.00;100.00
9784;BME280;4931;44.874;-1.092;2022-08-23T01:30:26;101510.28;;;20.02;100.00
9784;BME280;4931;44.874;-1.092;2022-08-23T01:35:13;101499.66;;;20.04;100.00
9784;BME280;4931;44.874;-1.092;2022-08-23T01:39:59;101505.69;;;20.06;100.00
9784;BME280;4931;44.874;-1.092;2022-08-23T01:44:47;101495.72;;;20.05;100.00
9784;BME280;4931;44.874;-1.092;2022-08-23T01:49:33;101494.88;;;20.05;100.00
9784;BME280;4931;44.874;-1.092;2022-08-23T01:54:18;101501.94;;;20.02;100.00
9784;BME280;4931;44.874;-1.092;2022-08-23T01:59:04;101501.47;;;20.00;100.00
9784;BME280;4931;44.874;-1.092;2022-08-23T02:03:52;101509.16;;;20.03;100.00
9784;BME280;4931;44.874;-1.092;2022-08-23T02:08:46;101515.38;;;20.00;100.00
9784;BME280;4931;44.874;-1.092;2022-08-23T02:13:44;101513.06;;;20.02;100.00
9784;BME280;4931;44.874;-1.092;2022-08-23T02:18:30;101515.53;;;20.04;100.00
9784;BME280;4931;44.874;-1.092;2022-08-23T02:23:18;101512.75;;;20.04;100.00
9784;BME280;4931;44.874;-1.092;2022-08-23T02:28:04;101514.00;;;19.80;100.00
9784;BME280;4931;44.874;-1.092;2022-08-23T02:32:50;101501.53;;;19.78;100.00
9784;BME280;4931;44.874;-1.092;2022-08-23T02:37:38;101512.34;;;19.70;100.00
9784;BME280;4931;44.874;-1.092;2022-08-23T02:42:25;101505.50;;;19.77;100.00
9784;BME280;4931;44.874;-1.092;2022-08-23T02:47:11;101502.59;;;19.82;100.00
9784;BME280;4931;44.874;-1.092;2022-08-23T02:51:56;101506.47;;;19.81;100.00
9784;BME280;4931;44.874;-1.092;2022-08-23T02:56:41;101514.09;;;19.57;100.00
9784;BME280;4931;44.874;-1.092;2022-08-23T03:01:35;101499.88;;;19.59;100.00
9784;BME280;4931;44.874;-1.092;2022-08-23T03:06:20;101493.16;;;19.60;100.00
9784;BME280;4931;44.874;-1.092;2022-08-23T03:11:10;101499.09;;;19.67;100.00
9784;BME280;4931;44.874;-1.092;2022-08-23T03:15:56;101495.28;;;19.63;100.00
9784;BME280;4931;44.874;-1.092;2022-08-23T03:20:44;101496.13;;;19.64;100.00
9784;BME280;4931;44.874;-1.092;2022-08-23T03:25:30;101487.97;;;19.67;100.00
9784;BME280;4931;44.874;-1.092;2022-08-23T03:30:15;101497.91;;;19.68;100.00
9784;BME280;4931;44.874;-1.092;2022-08-23T03:35:01;101502.38;;;19.78;100.00
9784;BME280;4931;44.874;-1.092;2022-08-23T03:39:57;101500.06;;;19.80;100.00
9784;BME280;4931;44.874;-1.092;2022-08-23T03:44:43;101492.88;;;19.70;100.00
9784;BME280;4931;44.874;-1.092;2022-08-23T03:49:28;101496.63;;;19.74;100.00
9784;BME280;4931;44.874;-1.092;2022-08-23T03:54:14;101493.84;;;19.74;100.00
9784;BME280;4931;44.874;-1.092;2022-08-23T03:59:09;101485.69;;;19.78;100.00
9784;BME280;4931;44.874;-1.092;2022-08-23T04:03:55;101491.44;;;19.82;100.00
9784;BME280;4931;44.874;-1.092;2022-08-23T04:08:41;101471.25;;;19.76;100.00
9784;BME280;4931;44.874;-1.092;2022-08-23T04:13:26;101478.97;;;19.79;100.00
9784;BME280;4931;44.874;-1.092;2022-08-23T04:18:14;101474.03;;;19.67;100.00
9784;BME280;4931;44.874;-1.092;2022-08-23T04:23:00;101493.97;;;19.52;100.00
9784;BME280;4931;44.874;-1.092;2022-08-23T04:27:45;101494.97;;;19.56;100.00
9784;BME280;4931;44.874;-1.092;2022-08-23T04:32:30;101484.63;;;19.56;100.00
9784;BME280;4931;44.874;-1.092;2022-08-23T04:37:19;101484.47;;;19.53;100.00
9784;BME280;4931;44.874;-1.092;2022-08-23T04:42:05;101485.94;;;19.50;100.00
9784;BME280;4931;44.874;-1.092;2022-08-23T04:47:04;101485.41;;;19.39;100.00
9784;BME280;4931;44.874;-1.092;2022-08-23T04:51:49;101489.84;;;19.40;100.00
9784;BME280;4931;44.874;-1.092;2022-08-23T04:56:38;101492.28;;;19.42;100.00
9784;BME280;4931;44.874;-1.092;2022-08-23T05:01:23;101492.00;;;19.44;100.00
9784;BME280;4931;44.874;-1.092;2022-08-23T05:06:09;101488.69;;;19.41;100.00
9784;BME280;4931;44.874;-1.092;2022-08-23T05:10:54;101492.28;;;19.33;100.00
9784;BME280;4931;44.874;-1.092;2022-08-23T05:15:42;101500.09;;;19.31;100.00
9784;BME280;4931;44.874;-1.092;2022-08-23T05:20:28;101494.31;;;19.10;100.00
9784;BME280;4931;44.874;-1.092;2022-08-23T05:25:13;101505.75;;;19.08;100.00
9784;BME280;4931;44.874;-1.092;2022-08-23T05:29:58;101503.97;;;19.13;100.00
9784;BME280;4931;44.874;-1.092;2022-08-23T05:34:46;101508.59;;;19.26;100.00
9784;BME280;4931;44.874;-1.092;2022-08-23T05:39:31;101515.66;;;19.32;100.00
9784;BME280;4931;44.874;-1.092;2022-08-23T05:44:18;101519.72;;;19.26;100.00
9784;BME280;4931;44.874;-1.092;2022-08-23T05:49:03;101512.03;;;19.32;100.00
9784;BME280;4931;44.874;-1.092;2022-08-23T05:53:53;101521.72;;;19.34;100.00
9784;BME280;4931;44.874;-1.092;2022-08-23T05:58:38;101524.75;;;19.55;100.00
9784;BME280;4931;44.874;-1.092;2022-08-23T06:03:24;101521.50;;;19.62;100.00
9784;BME280;4931;44.874;-1.092;2022-08-23T06:08:09;101519.38;;;19.68;100.00
9784;BME280;4931;44.874;-1.092;2022-08-23T06:12:56;101534.13;;;19.77;100.00
9784;BME280;4931;44.874;-1.092;2022-08-23T06:17:42;101528.75;;;19.81;100.00
9784;BME280;4931;44.874;-1.092;2022-08-23T06:22:28;101536.00;;;19.82;100.00
9784;BME280;4931;44.874;-1.092;2022-08-23T06:27:14;101547.44;;;19.89;100.00
9784;BME280;4931;44.874;-1.092;2022-08-23T06:32:03;101536.00;;;19.82;100.00
9784;BME280;4931;44.874;-1.092;2022-08-23T06:36:51;101543.16;;;19.83;100.00
9784;BME280;4931;44.874;-1.092;2022-08-23T06:41:37;101544.66;;;19.89;100.00
9784;BME280;4931;44.874;-1.092;2022-08-23T06:46:25;101550.75;;;19.91;100.00
9784;BME280;4931;44.874;-1.092;2022-08-23T06:51:15;101554.00;;;19.93;100.00
9784;BME280;4931;44.874;-1.092;2022-08-23T06:56:03;101550.59;;;19.96;100.00
9784;BME280;4931;44.874;-1.092;2022-08-23T07:00:49;101560.91;;;20.04;100.00
9784;BME280;4931;44.874;-1.092;2022-08-23T07:05:38;101566.00;;;20.11;100.00
9784;BME280;4931;44.874;-1.092;2022-08-23T07:10:26;101558.13;;;20.22;100.00
9784;BME280;4931;44.874;-1.092;2022-08-23T07:15:12;101560.28;;;20.25;100.00
9784;BME280;4931;44.874;-1.092;2022-08-23T07:19:57;101557.50;;;20.25;100.00
9784;BME280;4931;44.874;-1.092;2022-08-23T07:24:42;101549.16;;;20.25;100.00
9784;BME280;4931;44.874;-1.092;2022-08-23T07:29:30;101551.75;;;20.30;100.00
9784;BME280;4931;44.874;-1.092;2022-08-23T07:34:16;101561.28;;;20.29;100.00
9784;BME280;4931;44.874;-1.092;2022-08-23T07:39:03;101551.75;;;20.30;100.00
9784;BME280;4931;44.874;-1.092;2022-08-23T07:43:48;101559.78;;;20.49;100.00
9784;BME280;4931;44.874;-1.092;2022-08-23T07:48:37;101565.22;;;20.63;100.00
9784;BME280;4931;44.874;-1.092;2022-08-23T07:53:37;101556.69;;;20.68;100.00
9784;BME280;4931;44.874;-1.092;2022-08-23T07:58:26;101557.34;;;20.83;100.00
9784;BME280;4931;44.874;-1.092;2022-08-23T08:03:13;101560.59;;;20.85;100.00
9784;BME280;4931;44.874;-1.092;2022-08-23T08:08:01;101552.06;;;20.90;100.00
9784;BME280;4931;44.874;-1.092;2022-08-23T08:12:47;101544.16;;;21.01;100.00
9784;BME280;4931;44.874;-1.092;2022-08-23T08:17:32;101548.31;;;21.33;100.00
9784;BME280;4931;44.874;-1.092;2022-08-23T08:22:17;101535.31;;;21.46;100.00
9784;BME280;4931;44.874;-1.092;2022-08-23T08:27:05;101528.91;;;22.05;100.00
9784;BME280;4931;44.874;-1.092;2022-08-23T08:31:51;101518.53;;;22.06;100.00
9784;BME280;4931;44.874;-1.092;2022-08-23T08:36:39;101518.28;;;22.20;100.00
9784;BME280;4931;44.874;-1.092;2022-08-23T08:41:34;101515.00;;;22.39;100.00
9784;BME280;4931;44.874;-1.092;2022-08-23T08:46:34;101503.84;;;22.73;100.00
9784;BME280;4931;44.874;-1.092;2022-08-23T08:51:35;101494.72;;;22.63;100.00
9784;BME280;4931;44.874;-1.092;2022-08-23T08:56:27;101500.41;;;22.54;100.00
9784;BME280;4931;44.874;-1.092;2022-08-23T09:01:14;101510.97;;;22.28;100.00
9784;BME280;4931;44.874;-1.092;2022-08-23T09:06:09;101514.94;;;22.27;100.00
9784;BME280;4931;44.874;-1.092;2022-08-23T09:11:02;101521.66;;;22.04;100.00
9784;BME280;4931;44.874;-1.092;2022-08-23T09:15:57;101517.31;;;22.16;100.00
9784;BME280;4931;44.874;-1.092;2022-08-23T09:20:48;101515.34;;;22.37;100.00
9784;BME280;4931;44.874;-1.092;2022-08-23T09:25:39;101521.09;;;22.75;100.00
9784;BME280;4931;44.874;-1.092;2022-08-23T09:30:45;101517.16;;;22.88;100.00
9784;BME280;4931;44.874;-1.092;2022-08-23T09:35:30;101498.84;;;23.36;100.00
9784;BME280;4931;44.874;-1.092;2022-08-23T09:40:19;101510.13;;;24.30;100.00
9784;BME280;4931;44.874;-1.092;2022-08-23T09:45:24;101490.19;;;24.92;100.00
9784;BME280;4931;44.874;-1.092;2022-08-23T09:50:23;101484.97;;;25.39;100.00
9784;BME280;4931;44.874;-1.092;2022-08-23T09:55:25;101490.75;;;25.46;100.00
9784;BME280;4931;44.874;-1.092;2022-08-23T10:00:23;101475.91;;;24.81;100.00
9784;BME280;4931;44.874;-1.092;2022-08-23T10:05:17;101486.78;;;24.55;100.00
9784;BME280;4931;44.874;-1.092;2022-08-23T10:10:15;101489.09;;;24.36;100.00
9784;BME280;4931;44.874;-1.092;2022-08-23T10:15:02;101497.09;;;24.10;100.00
9784;BME280;4931;44.874;-1.092;2022-08-23T10:19:54;101483.16;;;23.85;100.00
9784;BME280;4931;44.874;-1.092;2022-08-23T10:24:45;101483.16;;;23.85;100.00
9784;BME280;4931;44.874;-1.092;2022-08-23T10:29:36;101490.38;;;23.86;100.00
9784;BME280;4931;44.874;-1.092;2022-08-23T10:34:41;101484.75;;;23.86;100.00
9784;BME280;4931;44.874;-1.092;2022-08-23T10:39:38;101486.19;;;23.80;100.00
9784;BME280;4931;44.874;-1.092;2022-08-23T10:44:34;101484.06;;;23.89;100.00
9784;BME280;4931;44.874;-1.092;2022-08-23T10:49:23;101476.50;;;24.02;100.00
9784;BME280;4931;44.874;-1.092;2022-08-23T10:54:13;101478.25;;;23.94;100.00
9784;BME280;4931;44.874;-1.092;2022-08-23T10:59:13;101469.16;;;23.73;100.00
9784;BME280;4931;44.874;-1.092;2022-08-23T11:04:01;101464.75;;;23.59;100.00
9784;BME280;4931;44.874;-1.092;2022-08-23T11:08:47;101471.06;;;23.56;100.00
9784;BME280;4931;44.874;-1.092;2022-08-23T11:13:51;101473.88;;;23.44;100.00
9784;BME280;4931;44.874;-1.092;2022-08-23T11:18:42;101467.34;;;23.40;100.00
9784;BME280;4931;44.874;-1.092;2022-08-23T11:23:43;101471.53;;;23.46;100.00
9784;BME280;4931;44.874;-1.092;2022-08-23T11:28:38;101456.81;;;23.61;100.00
9784;BME280;4931;44.874;-1.092;2022-08-23T11:33:35;101461.25;;;23.62;100.00
9784;BME280;4931;44.874;-1.092;2022-08-23T11:43:47;101446.91;;;24.04;100.00
9784;BME280;4931;44.874;-1.092;2022-08-23T11:48:36;101442.66;;;24.23;100.00
9784;BME280;4931;44.874;-1.092;2022-08-23T11:53:53;101440.31;;;24.25;100.00
9784;BME280;4931;44.874;-1.092;2022-08-23T11:59:19;101438.94;;;24.63;100.00
9784;BME280;4931;44.874;-1.092;2022-08-23T12:04:31;101431.53;;;24.87;100.00
9784;BME280;4931;44.874;-1.092;2022-08-23T12:14:53;101417.13;;;25.21;100.00
9784;BME280;4931;44.874;-1.092;2022-08-23T12:19:40;101413.06;;;25.18;100.00
9784;BME280;4931;44.874;-1.092;2022-08-23T12:24:32;101412.31;;;25.53;100.00
9784;BME280;4931;44.874;-1.092;2022-08-23T12:29:26;101413.91;;;25.54;100.00
9784;BME280;4931;44.874;-1.092;2022-08-23T12:34:22;101402.97;;;25.49;100.00
9784;BME280;4931;44.874;-1.092;2022-08-23T12:39:21;101398.75;;;25.23;100.00
9784;BME280;4931;44.874;-1.092;2022-08-23T12:44:08;101393.75;;;25.32;100.00
9784;BME280;4931;44.874;-1.092;2022-08-23T12:48:54;101389.88;;;25.21;100.00
9784;BME280;4931;44.874;-1.092;2022-08-23T12:53:44;101389.31;;;25.31;100.00
9784;BME280;4931;44.874;-1.092;2022-08-23T12:58:32;101387.91;;;25.06;100.00
9784;BME280;4931;44.874;-1.092;2022-08-23T13:03:21;101389.44;;;25.19;100.00
9784;BME280;4931;44.874;-1.092;2022-08-23T13:08:09;101388.63;;;25.02;100.00
9784;BME280;4931;44.874;-1.092;2022-08-23T13:12:58;101396.94;;;25.15;100.00
9784;BME280;4931;44.874;-1.092;2022-08-23T13:17:44;101393.84;;;25.20;100.00
9784;BME280;4931;44.874;-1.092;2022-08-23T13:22:31;101389.22;;;25.28;100.00
9784;BME280;4931;44.874;-1.092;2022-08-23T13:27:21;101384.78;;;25.43;100.00
9784;BME280;4931;44.874;-1.092;2022-08-23T13:32:31;101375.91;;;25.41;100.00
9784;BME280;4931;44.874;-1.092;2022-08-23T13:37:20;101377.09;;;25.59;100.00
9784;BME280;4931;44.874;-1.092;2022-08-23T13:42:08;101367.22;;;25.85;100.00
9784;BME280;4931;44.874;-1.092;2022-08-23T13:46:54;101359.38;;;25.94;100.00
9784;BME280;4931;44.874;-1.092;2022-08-23T13:51:45;101358.47;;;25.90;100.00
9784;BME280;4931;44.874;-1.092;2022-08-23T13:57:10;101347.63;;;26.08;100.00
9784;BME280;4931;44.874;-1.092;2022-08-23T14:01:58;101350.19;;;26.17;100.00
9784;BME280;4931;44.874;-1.092;2022-08-23T14:06:46;101338.88;;;26.13;100.00
9784;BME280;4931;44.874;-1.092;2022-08-23T14:11:33;101330.22;;;25.83;100.00
9784;BME280;4931;44.874;-1.092;2022-08-23T14:16:23;101332.31;;;25.66;100.00
9784;BME280;4931;44.874;-1.092;2022-08-23T14:21:21;101328.00;;;25.73;100.00
9784;BME280;4931;44.874;-1.092;2022-08-23T14:26:11;101314.25;;;26.07;100.00
9784;BME280;4931;44.874;-1.092;2022-08-23T14:30:58;101314.03;;;26.39;100.00
9784;BME280;4931;44.874;-1.092;2022-08-23T14:35:44;101309.38;;;26.04;100.00
9784;BME280;4931;44.874;-1.092;2022-08-23T14:40:29;101318.31;;;25.90;100.00
9784;BME280;4931;44.874;-1.092;2022-08-23T14:45:17;101310.47;;;25.99;100.00
9784;BME280;4931;44.874;-1.092;2022-08-23T14:50:06;101302.53;;;26.24;100.00
9784;BME280;4931;44.874;-1.092;2022-08-23T14:54:52;101287.38;;;26.56;100.00
9784;BME280;4931;44.874;-1.092;2022-08-23T14:59:38;101287.56;;;26.66;100.00
9784;BME280;4931;44.874;-1.092;2022-08-23T15:04:26;101280.09;;;27.05;100.00
9784;BME280;4931;44.874;-1.092;2022-08-23T15:09:16;101288.63;;;27.12;100.00
9784;BME280;4931;44.874;-1.092;2022-08-23T15:14:02;101287.88;;;26.88;100.00
9784;BME280;4931;44.874;-1.092;2022-08-23T15:18:49;101280.34;;;26.92;100.00
9784;BME280;4931;44.874;-1.092;2022-08-23T15:23:37;101289.72;;;27.04;100.00
9784;BME280;4931;44.874;-1.092;2022-08-23T15:28:23;101279.44;;;27.15;100.00
9784;BME280;4931;44.874;-1.092;2022-08-23T15:33:09;101282.16;;;27.38;100.00
9784;BME280;4931;44.874;-1.092;2022-08-23T15:37:57;101281.00;;;27.43;100.00
9784;BME280;4931;44.874;-1.092;2022-08-23T15:42:45;101268.44;;;27.37;100.00
9784;BME280;4931;44.874;-1.092;2022-08-23T15:47:33;101266.16;;;27.15;100.00
9784;BME280;4931;44.874;-1.092;2022-08-23T15:52:20;101251.09;;;27.00;100.00
9784;BME280;4931;44.874;-1.092;2022-08-23T15:57:06;101251.03;;;26.97;100.00
9784;BME280;4931;44.874;-1.092;2022-08-23T16:01:54;101247.63;;;26.84;100.00
9784;BME280;4931;44.874;-1.092;2022-08-23T16:06:40;101239.81;;;27.00;100.00
9784;BME280;4931;44.874;-1.092;2022-08-23T16:11:26;101239.91;;;27.08;100.00
9784;BME280;4931;44.874;-1.092;2022-08-23T16:16:16;101240.50;;;26.90;100.00
9784;BME280;4931;44.874;-1.092;2022-08-23T16:21:05;101226.88;;;26.96;100.00
9784;BME280;4931;44.874;-1.092;2022-08-23T16:25:51;101238.78;;;26.82;100.00
9784;BME280;4931;44.874;-1.092;2022-08-23T16:30:41;101240.50;;;26.90;100.00
9784;BME280;4931;44.874;-1.092;2022-08-23T16:35:27;101235.97;;;26.82;100.00
9784;BME280;4931;44.874;-1.092;2022-08-23T16:40:15;101230.88;;;26.91;100.00
9784;BME280;4931;44.874;-1.092;2022-08-23T16:45:01;101232.03;;;26.90;100.00
9784;BME280;4931;44.874;-1.092;2022-08-23T16:49:46;101226.50;;;26.71;100.00
9784;BME280;4931;44.874;-1.092;2022-08-23T16:54:31;101227.84;;;26.77;100.00
9784;BME280;4931;44.874;-1.092;2022-08-23T16:59:19;101227.41;;;26.75;100.00
9784;BME280;4931;44.874;-1.092;2022-08-23T17:04:04;101220.31;;;26.84;100.00
9784;BME280;4931;44.874;-1.092;2022-08-23T17:08:50;101220.81;;;26.67;100.00
9784;BME280;4931;44.874;-1.092;2022-08-23T17:13:35;101220.41;;;26.92;100.00
9784;BME280;4931;44.874;-1.092;2022-08-23T17:18:23;101214.78;;;26.65;100.00
9784;BME280;4931;44.874;-1.092;2022-08-23T17:23:09;101213.41;;;26.51;100.00
9784;BME280;4931;44.874;-1.092;2022-08-23T17:27:56;101210.72;;;26.35;100.00
9784;BME280;4931;44.874;-1.092;2022-08-23T17:32:42;101212.13;;;26.22;100.00
9784;BME280;4931;44.874;-1.092;2022-08-23T17:37:31;101218.38;;;26.12;100.00
9784;BME280;4931;44.874;-1.092;2022-08-23T17:42:17;101217.28;;;25.97;100.00
9784;BME280;4931;44.874;-1.092;2022-08-23T17:47:03;101221.66;;;25.71;100.00
9784;BME280;4931;44.874;-1.092;2022-08-23T17:51:49;101222.84;;;25.93;100.00
9784;BME280;4931;44.874;-1.092;2022-08-23T17:56:39;101219.22;;;25.69;100.00
9784;BME280;4931;44.874;-1.092;2022-08-23T18:01:31;101224.44;;;25.48;100.00
9784;BME280;4931;44.874;-1.092;2022-08-23T18:06:17;101230.66;;;25.38;100.00
9784;BME280;4931;44.874;-1.092;2022-08-23T18:11:03;101228.25;;;25.40;100.00
9784;BME280;4931;44.874;-1.092;2022-08-23T18:15:51;101232.84;;;25.28;100.00
9784;BME280;4931;44.874;-1.092;2022-08-23T18:20:37;101229.50;;;25.23;100.00
9784;BME280;4931;44.874;-1.092;2022-08-23T18:25:22;101235.47;;;25.01;100.00
9784;BME280;4931;44.874;-1.092;2022-08-23T18:30:09;101233.69;;;24.93;100.00
9784;BME280;4931;44.874;-1.092;2022-08-23T18:34:57;101240.47;;;24.92;100.00
9784;BME280;4931;44.874;-1.092;2022-08-23T18:39:43;101240.19;;;24.97;100.00
9784;BME280;4931;44.874;-1.092;2022-08-23T18:44:28;101239.22;;;24.90;100.00
9784;BME280;4931;44.874;-1.092;2022-08-23T18:49:14;101245.16;;;24.68;100.00
9784;BME280;4931;44.874;-1.092;2022-08-23T18:54:02;101256.19;;;24.61;100.00
9784;BME280;4931;44.874;-1.092;2022-08-23T18:58:48;101260.63;;;24.46;100.00
9784;BME280;4931;44.874;-1.092;2022-08-23T19:03:33;101270.22;;;24.45;100.00
9784;BME280;4931;44.874;-1.092;2022-08-23T19:08:18;101270.69;;;24.31;100.00
9784;BME280;4931;44.874;-1.092;2022-08-23T19:13:06;101272.13;;;24.25;100.00
9784;BME280;4931;44.874;-1.092;2022-08-23T19:17:52;101291.63;;;24.06;100.00
9784;BME280;4931;44.874;-1.092;2022-08-23T19:22:39;101294.69;;;24.00;100.00
9784;BME280;4931;44.874;-1.092;2022-08-23T19:27:24;101295.78;;;23.96;100.00
9784;BME280;4931;44.874;-1.092;2022-08-23T19:32:12;101299.88;;;23.86;100.00
9784;BME280;4931;44.874;-1.092;2022-08-23T19:36:58;101309.28;;;23.78;100.00
9784;BME280;4931;44.874;-1.092;2022-08-23T19:41:44;101305.94;;;23.72;100.00
9784;BME280;4931;44.874;-1.092;2022-08-23T19:46:30;101318.25;;;23.55;100.00
9784;BME280;4931;44.874;-1.092;2022-08-23T19:51:18;101316.59;;;23.54;100.00
9784;BME280;4931;44.874;-1.092;2022-08-23T19:56:05;101319.66;;;23.49;100.00
9784;BME280;4931;44.874;-1.092;2022-08-23T20:00:52;101324.34;;;23.45;100.00
9784;BME280;4931;44.874;-1.092;2022-08-23T20:05:38;101323.66;;;23.35;100.00
9784;BME280;4931;44.874;-1.092;2022-08-23T20:10:26;101325.78;;;23.26;100.00
9784;BME280;4931;44.874;-1.092;2022-08-23T20:15:12;101333.34;;;23.26;100.00
9784;BME280;4931;44.874;-1.092;2022-08-23T20:19:58;101331.16;;;23.19;100.00
9784;BME280;4931;44.874;-1.092;2022-08-23T20:24:44;101330.91;;;22.99;100.00
9784;BME280;4931;44.874;-1.092;2022-08-23T20:29:36;101336.06;;;22.85;100.00
9784;BME280;4931;44.874;-1.092;2022-08-23T20:34:22;101340.97;;;22.88;100.00
9784;BME280;4931;44.874;-1.092;2022-08-23T20:39:09;101339.91;;;22.80;100.00
9784;BME280;4931;44.874;-1.092;2022-08-23T20:43:55;101332.34;;;22.68;100.00
9784;BME280;4931;44.874;-1.092;2022-08-23T20:48:44;101335.94;;;22.69;100.00
9784;BME280;4931;44.874;-1.092;2022-08-23T20:53:31;101340.03;;;22.59;100.00
9784;BME280;4931;44.874;-1.092;2022-08-23T20:58:16;101334.88;;;22.61;100.00
9784;BME280;4931;44.874;-1.092;2022-08-23T21:03:01;101340.47;;;22.49;100.00
9784;BME280;4931;44.874;-1.092;2022-08-23T21:07:49;101335.59;;;22.46;100.00
9784;BME280;4931;44.874;-1.092;2022-08-23T21:12:34;101339.28;;;22.37;100.00
9784;BME280;4931;44.874;-1.092;2022-08-23T21:17:19;101340.53;;;22.28;100.00
9784;BME280;4931;44.874;-1.092;2022-08-23T21:22:05;101343.84;;;22.09;100.00
9784;BME280;4931;44.874;-1.092;2022-08-23T21:26:52;101330.22;;;22.07;100.00
9784;BME280;4931;44.874;-1.092;2022-08-23T21:31:38;101325.91;;;21.97;100.00
9784;BME280;4931;44.874;-1.092;2022-08-23T21:36:23;101322.41;;;22.00;100.00
9784;BME280;4931;44.874;-1.092;2022-08-23T21:41:23;101324.13;;;21.93;100.00
9784;BME280;4931;44.874;-1.092;2022-08-23T21:46:12;101324.19;;;21.84;100.00
9784;BME280;4931;44.874;-1.092;2022-08-23T21:50:58;101334.78;;;21.78;100.00
9784;BME280;4931;44.874;-1.092;2022-08-23T21:55:44;101328.38;;;21.78;100.00
9784;BME280;4931;44.874;-1.092;2022-08-23T22:00:30;101327.31;;;21.70;100.00
9784;BME280;4931;44.874;-1.092;2022-08-23T22:05:18;101331.25;;;21.48;100.00
9784;BME280;4931;44.874;-1.092;2022-08-23T22:10:04;101330.00;;;21.36;100.00
9784;BME280;4931;44.874;-1.092;2022-08-23T22:14:51;101335.72;;;21.40;100.00
9784;BME280;4931;44.874;-1.092;2022-08-23T22:19:36;101342.81;;;21.37;100.00
9784;BME280;4931;44.874;-1.092;2022-08-23T22:24:25;101321.16;;;21.34;100.00
9784;BME280;4931;44.874;-1.092;2022-08-23T22:29:10;101330.00;;;21.36;100.00
9784;BME280;4931;44.874;-1.092;2022-08-23T22:33:57;101322.25;;;21.21;100.00
9784;BME280;4931;44.874;-1.092;2022-08-23T22:38:44;101327.69;;;21.17;100.00
9784;BME280;4931;44.874;-1.092;2022-08-23T22:43:32;101331.47;;;21.13;100.00
9784;BME280;4931;44.874;-1.092;2022-08-23T22:48:18;101326.28;;;21.02;100.00
9784;BME280;4931;44.874;-1.092;2022-08-23T22:53:03;101326.91;;;20.87;100.00
9784;BME280;4931;44.874;-1.092;2022-08-23T22:57:48;101321.06;;;20.71;100.00
9784;BME280;4931;44.874;-1.092;2022-08-23T23:02:36;101315.16;;;20.64;100.00
9784;BME280;4931;44.874;-1.092;2022-08-23T23:07:22;101315.97;;;20.64;100.00
9784;BME280;4931;44.874;-1.092;2022-08-23T23:12:19;101318.28;;;20.62;100.00
9784;BME280;4931;44.874;-1.092;2022-08-23T23:17:04;101311.09;;;20.61;100.00
9784;BME280;4931;44.874;-1.092;2022-08-23T23:21:54;101315.69;;;20.57;100.00
9784;BME280;4931;44.874;-1.092;2022-08-23T23:26:41;101318.47;;;20.57;100.00
9784;BME280;4931;44.874;-1.092;2022-08-23T23:31:29;101321.63;;;20.47;100.00
9784;BME280;4931;44.874;-1.092;2022-08-23T23:36:14;101314.50;;;20.28;100.00
9784;BME280;4931;44.874;-1.092;2022-08-23T23:41:06;101308.94;;;20.28;100.00
9784;BME280;4931;44.874;-1.092;2022-08-23T23:45:51;101305.63;;;20.26;100.00
9784;BME280;4931;44.874;-1.092;2022-08-23T23:50:40;101303.50;;;20.32;100.00
9784;BME280;4931;44.874;-1.092;2022-08-23T23:55:27;101294.66;;;20.30;100.00
